The Hangar Logo

METARs in Plain English
Latest METAR information for EGVN - BRIZE NORTON

EGVN 290950Z 28005KT 9999 FEW008 SCT015 BKN030 18/16 Q1010 RESHRA WHT BECMG SCT025 BLU

In plain english is....

This is a METAR report for EGVN - BRIZE NORTON .
The report was made 15 minutes ago, at 09:50 UTC.
The wind was blowing at a speed of 5 knots (5.8 miles per hour, 2.6 metres per second) from the West (280°).
The visibility was greater than 6.2 miles (greater than 10 kilometres).
There were a few clouds at a height of 800 feet (244 metres), scattered clouds at a height of 1500 feet (457 metres) and broken clouds at a height of 3000 feet (914 metres).
The temperature was 18°C (64°F), a dew point of 16°C (61°F) and a relative humidity of 88.1%.
The altimeter setting (airfield QNH) was 1,010 hPa (29.83 inHg).
Other remarks RESHRA WHT BECMG SCT025 BLU.

UK Mainland

Ireland

Channel Islands

France

Other



Enter
Tel: 07092 887559 - Fax: 07092 183262

Content copyright © 1999-2016 TheHangar.co.uk. All rights reserved.
Please send your questions, comments, or bug reports to the Webmaster.